createdAt,value
2022-12-04T00:01:20.324Z,7.01
2022-12-04T00:03:49.999Z,6.98
2022-12-04T00:06:18.926Z,7.43
2022-12-04T00:08:47.586Z,7.52
2022-12-04T00:11:17.730Z,7.28
2022-12-04T00:13:45.141Z,6.98
2022-12-04T00:16:18.273Z,7.22
2022-12-04T00:18:45.190Z,7.44
2022-12-04T00:21:13.812Z,7.29
2022-12-04T00:23:42.072Z,7.84
2022-12-04T00:26:14.514Z,7.67
2022-12-04T00:28:42.140Z,8.15
2022-12-04T00:31:12.187Z,7.35
2022-12-04T00:33:39.683Z,7.48
2022-12-04T00:36:10.003Z,7.62
2022-12-04T00:38:37.915Z,7.61
2022-12-04T00:41:05.151Z,7.95
2022-12-04T00:43:32.222Z,7.65
2022-12-04T00:45:59.479Z,7.70
2022-12-04T00:48:26.387Z,7.36
2022-12-04T00:50:54.138Z,7.46
2022-12-04T00:53:21.687Z,7.82
2022-12-04T00:55:48.224Z,7.41
2022-12-04T00:58:14.763Z,7.23
2022-12-04T01:00:42.504Z,7.31
2022-12-04T01:03:09.784Z,7.30
2022-12-04T01:05:41.090Z,7.54
2022-12-04T01:08:08.601Z,7.99
2022-12-04T01:10:38.760Z,7.48
2022-12-04T01:13:05.682Z,7.46
2022-12-04T01:15:32.418Z,7.45
2022-12-04T01:17:58.983Z,7.53
2022-12-04T01:20:25.586Z,7.84
2022-12-04T01:22:52.126Z,7.68
2022-12-04T01:25:18.758Z,7.45
2022-12-04T01:27:45.274Z,7.47
2022-12-04T01:30:12.971Z,7.46
2022-12-04T01:32:39.481Z,7.26
2022-12-04T01:35:06.580Z,7.81
2022-12-04T01:37:33.465Z,7.77
2022-12-04T01:40:00.132Z,8.03
2022-12-04T01:42:27.790Z,7.74
2022-12-04T01:45:32.154Z,7.64
2022-12-04T01:48:10.883Z,7.90
2022-12-04T01:50:37.782Z,7.90
2022-12-04T01:53:04.761Z,7.71
2022-12-04T01:55:31.727Z,7.56
2022-12-04T01:57:59.052Z,7.71
2022-12-04T02:00:25.667Z,8.03
2022-12-04T02:02:52.373Z,7.53
2022-12-04T02:05:23.112Z,7.49
2022-12-04T02:07:52.437Z,7.48
2022-12-04T02:10:24.519Z,7.57
2022-12-04T02:12:58.267Z,7.05
2022-12-04T02:15:34.924Z,7.11
2022-12-04T02:18:14.609Z,7.10
2022-12-04T02:21:16.764Z,7.20
2022-12-04T02:23:58.501Z,7.53
2022-12-04T02:26:49.085Z,7.41
2022-12-04T02:29:21.720Z,7.11
2022-12-04T02:32:00.814Z,7.30
2022-12-04T02:34:41.648Z,6.70
2022-12-04T02:37:34.473Z,7.62
2022-12-04T02:40:08.269Z,7.20
2022-12-04T02:42:41.758Z,7.13
2022-12-04T02:45:12.576Z,7.64
2022-12-04T02:47:41.627Z,7.31
2022-12-04T02:50:18.357Z,6.71
2022-12-04T02:53:14.067Z,7.55
2022-12-04T02:55:49.779Z,7.33
2022-12-04T02:58:24.564Z,6.87
2022-12-04T03:00:53.790Z,7.22
2022-12-04T03:03:26.854Z,7.03
2022-12-04T03:06:04.685Z,7.05
2022-12-04T03:08:41.368Z,7.36
2022-12-04T03:11:08.012Z,7.34
2022-12-04T03:13:56.813Z,7.40
2022-12-04T03:16:31.300Z,7.84
2022-12-04T03:19:07.815Z,7.33
2022-12-04T03:21:38.318Z,7.13
2022-12-04T03:24:13.100Z,6.79
2022-12-04T03:26:50.949Z,6.93
2022-12-04T03:29:33.519Z,7.19
2022-12-04T03:32:27.567Z,7.15
2022-12-04T03:35:01.712Z,7.31
2022-12-04T03:37:39.289Z,7.24
2022-12-04T03:40:28.688Z,7.36
2022-12-04T03:43:06.092Z,7.74
2022-12-04T03:45:47.208Z,7.67
2022-12-04T03:48:23.379Z,7.91
2022-12-04T03:50:59.693Z,7.25
2022-12-04T03:53:38.940Z,7.31
2022-12-04T03:56:11.748Z,7.58
2022-12-04T03:58:44.725Z,7.17
2022-12-04T04:01:14.059Z,7.09
2022-12-04T04:03:46.428Z,7.13
2022-12-04T04:06:18.796Z,7.08
2022-12-04T04:08:50.791Z,6.99
2022-12-04T04:11:27.691Z,7.25
2022-12-04T04:14:35.104Z,7.61
2022-12-04T04:17:28.078Z,7.18
2022-12-04T04:20:22.036Z,7.12
2022-12-04T04:23:11.889Z,7.29
2022-12-04T04:25:41.342Z,7.16
2022-12-04T04:28:31.213Z,7.95
2022-12-04T04:31:07.410Z,7.68
2022-12-04T04:33:39.421Z,7.00
2022-12-04T04:36:18.170Z,7.42
2022-12-04T04:39:00.810Z,6.99
2022-12-04T04:41:52.022Z,7.30
2022-12-04T04:44:21.192Z,7.43
2022-12-04T04:46:52.779Z,7.54
2022-12-04T04:49:24.568Z,7.73
2022-12-04T04:51:51.370Z,7.92
2022-12-04T04:54:19.621Z,7.71
2022-12-04T04:56:47.396Z,7.20
2022-12-04T04:59:14.560Z,7.46
2022-12-04T05:01:45.036Z,7.84
2022-12-04T05:04:11.773Z,7.49
2022-12-04T05:06:38.370Z,7.79
2022-12-04T05:09:04.977Z,7.77
2022-12-04T05:11:31.692Z,8.02
2022-12-04T05:13:58.681Z,7.48
2022-12-04T05:16:25.314Z,7.96
2022-12-04T05:19:11.595Z,8.12
2022-12-04T05:21:38.416Z,7.76
2022-12-04T05:24:05.433Z,8.07
2022-12-04T05:26:32.289Z,7.97
2022-12-04T05:28:58.805Z,7.56
2022-12-04T05:31:25.519Z,8.09
2022-12-04T05:33:53.216Z,8.27
2022-12-04T05:36:20.133Z,8.41
2022-12-04T05:38:47.003Z,6.89
2022-12-04T05:41:13.509Z,7.35
2022-12-04T05:43:40.110Z,7.72
2022-12-04T05:46:08.720Z,7.69
2022-12-04T05:48:35.708Z,7.56
2022-12-04T05:51:10.001Z,7.77
2022-12-04T05:53:37.968Z,7.53
2022-12-04T05:56:05.918Z,7.62
2022-12-04T05:58:36.138Z,7.72
2022-12-04T06:01:17.267Z,8.05
2022-12-04T06:03:44.477Z,8.02
2022-12-04T06:06:23.426Z,7.88
2022-12-04T06:08:52.886Z,7.63
2022-12-04T06:11:22.485Z,7.63
2022-12-04T06:13:49.811Z,7.75
2022-12-04T06:16:22.660Z,7.78
2022-12-04T06:18:57.821Z,8.00
2022-12-04T06:21:26.326Z,8.14
2022-12-04T06:23:54.237Z,8.14
2022-12-04T06:26:22.036Z,7.85
2022-12-04T06:28:49.083Z,8.21
2022-12-04T06:31:16.900Z,7.77
2022-12-04T06:33:43.779Z,7.76
2022-12-04T06:36:16.296Z,7.62
2022-12-04T06:38:42.953Z,7.61
2022-12-04T06:41:12.644Z,7.83
2022-12-04T06:43:40.233Z,8.35
2022-12-04T06:46:10.727Z,7.59
2022-12-04T06:48:37.668Z,7.54
2022-12-04T06:51:18.157Z,7.71
2022-12-04T06:53:45.285Z,8.18
2022-12-04T06:56:16.160Z,7.88
2022-12-04T06:58:42.671Z,8.11
2022-12-04T07:01:11.943Z,7.88
2022-12-04T07:03:39.252Z,7.84
2022-12-04T07:06:17.836Z,7.98
2022-12-04T07:08:46.501Z,8.14
2022-12-04T07:11:14.306Z,8.69
2022-12-04T07:13:41.607Z,8.56
2022-12-04T07:16:12.467Z,8.08
2022-12-04T07:18:39.012Z,7.91
2022-12-04T07:21:07.663Z,8.37
2022-12-04T07:23:34.666Z,8.44
2022-12-04T07:26:08.755Z,8.51
2022-12-04T07:28:36.177Z,8.27
2022-12-04T07:31:07.623Z,7.96
2022-12-04T07:33:36.008Z,8.39
2022-12-04T07:36:05.745Z,8.17
2022-12-04T07:38:34.750Z,8.34
2022-12-04T07:41:03.973Z,8.18
2022-12-04T07:43:31.797Z,8.40
2022-12-04T07:45:59.756Z,8.03
2022-12-04T07:48:31.665Z,8.16
2022-12-04T07:51:07.865Z,8.19
2022-12-04T07:53:35.300Z,8.08
2022-12-04T07:56:02.765Z,8.63
2022-12-04T07:58:29.749Z,7.97
2022-12-04T08:01:13.699Z,8.53
2022-12-04T08:03:47.195Z,8.22
2022-12-04T08:06:14.881Z,8.37
2022-12-04T08:08:41.503Z,8.17
2022-12-04T08:11:11.078Z,8.42
2022-12-04T08:13:37.596Z,7.57
2022-12-04T08:16:07.001Z,8.08
2022-12-04T08:18:33.710Z,8.11
2022-12-04T08:21:05.742Z,8.12
2022-12-04T08:23:33.142Z,7.85
2022-12-04T08:26:00.858Z,8.05
2022-12-04T08:28:28.160Z,8.16
2022-12-04T08:30:55.148Z,7.69
2022-12-04T08:33:21.815Z,7.87
2022-12-04T08:35:48.364Z,7.85
2022-12-04T08:38:14.903Z,7.91
2022-12-04T08:40:41.521Z,8.05
2022-12-04T08:43:08.289Z,7.94
2022-12-04T08:45:34.810Z,7.99
2022-12-04T08:48:02.113Z,7.93
2022-12-04T08:50:28.913Z,7.99
2022-12-04T08:52:55.469Z,8.43
2022-12-04T08:55:22.803Z,8.19
2022-12-04T08:57:52.469Z,7.82
2022-12-04T09:00:19.827Z,8.12
2022-12-04T09:02:49.797Z,7.92
2022-12-04T09:05:17.711Z,8.14
2022-12-04T09:07:44.732Z,8.43
2022-12-04T09:10:12.314Z,8.09
2022-12-04T09:12:39.117Z,8.53
2022-12-04T09:15:06.577Z,8.39
2022-12-04T09:17:34.516Z,8.76
2022-12-04T09:20:01.694Z,8.55
2022-12-04T09:22:45.480Z,8.47
2022-12-04T09:25:15.160Z,8.24
2022-12-04T09:27:41.885Z,8.36
2022-12-04T09:30:10.668Z,8.86
2022-12-04T09:32:37.714Z,7.97
2022-12-04T09:35:05.593Z,8.47
2022-12-04T09:37:33.143Z,8.75
2022-12-04T09:39:59.708Z,8.81
2022-12-04T09:42:48.591Z,7.95
2022-12-04T09:45:20.398Z,8.20
2022-12-04T09:47:50.338Z,7.79
2022-12-04T09:50:23.037Z,8.37
2022-12-04T09:53:03.329Z,8.53
2022-12-04T09:55:41.102Z,9.03
2022-12-04T09:58:14.088Z,8.55
2022-12-04T10:00:44.761Z,8.44
2022-12-04T10:03:17.420Z,8.44
2022-12-04T10:06:14.731Z,8.33
2022-12-04T10:08:49.771Z,9.18
2022-12-04T10:11:26.526Z,8.58
2022-12-04T10:14:02.072Z,8.97
2022-12-04T10:16:45.908Z,8.65
2022-12-04T10:19:18.524Z,8.55
2022-12-04T10:22:22.597Z,8.87
2022-12-04T10:24:56.633Z,8.62
2022-12-04T10:27:29.543Z,8.38
2022-12-04T10:30:00.865Z,8.12
2022-12-04T10:32:31.693Z,8.21
2022-12-04T10:35:08.856Z,8.58
2022-12-04T10:37:40.991Z,7.90
2022-12-04T10:40:22.058Z,8.08
2022-12-04T10:43:06.457Z,8.11
2022-12-04T10:45:33.014Z,8.60
2022-12-04T10:48:00.199Z,8.23
2022-12-04T10:50:26.875Z,8.15
2022-12-04T10:52:53.447Z,7.93
2022-12-04T10:55:33.169Z,8.80
2022-12-04T10:57:59.773Z,8.75
2022-12-04T11:00:34.697Z,9.19
2022-12-04T11:03:04.622Z,8.84
2022-12-04T11:05:55.422Z,9.18
2022-12-04T11:08:30.582Z,8.68
2022-12-04T11:11:00.916Z,8.86
2022-12-04T11:13:27.553Z,9.31
2022-12-04T11:15:58.133Z,9.24
2022-12-04T11:18:27.893Z,9.80
2022-12-04T11:20:56.392Z,9.50
2022-12-04T11:23:24.747Z,9.00
2022-12-04T11:25:54.596Z,9.57
2022-12-04T11:28:44.544Z,9.86
2022-12-04T11:31:20.052Z,9.86
2022-12-04T11:33:50.539Z,9.44
2022-12-04T11:36:51.955Z,9.77
2022-12-04T11:39:26.838Z,9.44
2022-12-04T11:42:17.208Z,9.52
2022-12-04T11:45:02.039Z,9.25
2022-12-04T11:47:31.473Z,9.35
2022-12-04T11:50:01.592Z,9.41
2022-12-04T11:52:35.795Z,9.46
2022-12-04T11:55:15.676Z,9.54
2022-12-04T11:58:14.452Z,9.02
2022-12-04T12:00:55.025Z,9.65
2022-12-04T12:03:38.341Z,9.40
2022-12-04T12:06:29.776Z,10.00
2022-12-04T12:09:08.269Z,10.29
2022-12-04T12:11:40.113Z,9.66
2022-12-04T12:14:24.199Z,9.25
2022-12-04T12:17:08.701Z,9.34
2022-12-04T12:20:11.013Z,10.18
2022-12-04T12:23:08.352Z,9.87
2022-12-04T12:26:13.561Z,10.18
2022-12-04T12:29:08.848Z,10.07
2022-12-04T12:31:51.100Z,10.03
2022-12-04T12:34:36.005Z,9.56
2022-12-04T12:37:15.836Z,9.64
2022-12-04T12:39:56.688Z,9.46
2022-12-04T12:42:31.268Z,9.53
2022-12-04T12:45:04.488Z,9.22
2022-12-04T12:47:38.620Z,9.64
2022-12-04T12:50:49.379Z,10.05
2022-12-04T12:53:22.929Z,10.24
2022-12-04T12:56:01.926Z,10.08
2022-12-04T12:58:38.381Z,10.56
2022-12-04T13:01:13.169Z,9.25
2022-12-04T13:04:04.918Z,9.95
2022-12-04T13:07:14.650Z,10.62
2022-12-04T13:09:48.288Z,10.76
2022-12-04T13:12:16.743Z,10.56
2022-12-04T13:14:48.653Z,10.77
2022-12-04T13:17:35.564Z,11.36
2022-12-04T13:20:10.172Z,11.12
2022-12-04T13:23:10.828Z,11.10
2022-12-04T13:25:56.636Z,10.63
2022-12-04T13:28:49.896Z,10.75
2022-12-04T13:32:02.834Z,10.82
2022-12-04T13:34:46.858Z,10.34
2022-12-04T13:37:59.792Z,9.85
2022-12-04T13:40:38.644Z,10.53
2022-12-04T13:43:23.869Z,9.09
2022-12-04T13:45:53.070Z,9.43
2022-12-04T13:48:31.800Z,9.49
2022-12-04T13:51:08.358Z,9.87
2022-12-04T13:53:38.031Z,10.36
2022-12-04T13:56:09.413Z,10.03
2022-12-04T13:58:38.283Z,9.61
2022-12-04T14:01:28.386Z,9.86
2022-12-04T14:03:57.331Z,9.35
2022-12-04T14:06:36.427Z,9.27
2022-12-04T14:09:07.600Z,9.43
2022-12-04T14:11:45.085Z,8.95
2022-12-04T14:14:26.576Z,9.26
2022-12-04T14:16:54.116Z,8.91
2022-12-04T14:19:36.679Z,9.07
2022-12-04T14:22:03.751Z,8.83
2022-12-04T14:24:40.243Z,9.15
2022-12-04T14:27:31.728Z,9.25
2022-12-04T14:29:59.832Z,9.60
2022-12-04T14:32:30.857Z,9.83
2022-12-04T14:34:57.934Z,9.81
2022-12-04T14:37:53.196Z,9.25
2022-12-04T14:40:24.686Z,9.19
2022-12-04T14:42:52.285Z,9.35
2022-12-04T14:45:25.922Z,9.36
2022-12-04T14:47:52.636Z,9.36
2022-12-04T14:50:44.307Z,9.50
2022-12-04T14:53:29.684Z,9.31
2022-12-04T14:56:23.329Z,9.15
2022-12-04T14:58:51.131Z,9.06
2022-12-04T15:01:29.720Z,9.26
2022-12-04T15:04:02.043Z,9.72
2022-12-04T15:06:31.508Z,9.99
2022-12-04T15:09:23.445Z,10.09
2022-12-04T15:12:14.049Z,9.46
2022-12-04T15:14:46.307Z,9.27
2022-12-04T15:17:15.504Z,8.84
2022-12-04T15:19:42.660Z,9.11
2022-12-04T15:22:19.465Z,8.80
2022-12-04T15:24:46.442Z,8.64
2022-12-04T15:27:15.108Z,9.19
2022-12-04T15:29:48.294Z,9.53
2022-12-04T15:32:17.562Z,9.07
2022-12-04T15:34:48.947Z,9.21
2022-12-04T15:37:22.400Z,8.98
2022-12-04T15:39:52.357Z,9.06
2022-12-04T15:42:22.202Z,9.08
2022-12-04T15:44:53.188Z,8.92
2022-12-04T15:47:25.348Z,9.41
2022-12-04T15:49:52.039Z,8.99
2022-12-04T15:52:20.121Z,9.50
2022-12-04T15:54:56.489Z,9.39
2022-12-04T15:57:31.165Z,9.66
2022-12-04T16:00:05.090Z,9.49
2022-12-04T16:02:39.597Z,9.14
2022-12-04T16:05:21.219Z,9.84
2022-12-04T16:07:59.723Z,9.66
2022-12-04T16:10:33.484Z,9.59
2022-12-04T16:13:03.263Z,9.46
2022-12-04T16:15:39.549Z,10.10
2022-12-04T16:18:07.737Z,9.28
2022-12-04T16:20:36.021Z,9.46
2022-12-04T16:23:03.658Z,9.78
2022-12-04T16:25:31.523Z,10.26
2022-12-04T16:27:59.221Z,9.89
2022-12-04T16:30:28.251Z,10.03
2022-12-04T16:32:54.901Z,9.72
2022-12-04T16:35:22.365Z,9.73
2022-12-04T16:37:48.879Z,9.87
2022-12-04T16:40:16.260Z,10.04
2022-12-04T16:42:43.509Z,9.14
2022-12-04T16:45:28.275Z,9.30
2022-12-04T16:47:57.895Z,9.53
2022-12-04T16:50:26.444Z,9.68
2022-12-04T16:52:53.493Z,10.02
2022-12-04T16:55:38.379Z,9.15
2022-12-04T16:58:06.011Z,8.83
2022-12-04T17:00:33.421Z,9.97
2022-12-04T17:03:04.025Z,10.40
2022-12-04T17:05:33.403Z,10.05
2022-12-04T17:08:00.733Z,9.69
2022-12-04T17:10:29.343Z,9.71
2022-12-04T17:12:56.034Z,9.67
2022-12-04T17:15:22.868Z,9.70
2022-12-04T17:17:49.844Z,9.57
2022-12-04T17:20:18.965Z,9.94
2022-12-04T17:22:46.293Z,9.83
2022-12-04T17:25:13.932Z,9.74
2022-12-04T17:27:40.621Z,9.96
2022-12-04T17:30:08.514Z,10.04
2022-12-04T17:32:35.236Z,10.09
2022-12-04T17:35:02.957Z,9.71
2022-12-04T17:37:31.628Z,10.11
2022-12-04T17:39:58.583Z,10.08
2022-12-04T17:42:25.200Z,9.72
2022-12-04T17:44:51.728Z,10.26
2022-12-04T17:47:18.838Z,10.20
2022-12-04T17:49:45.390Z,10.21
2022-12-04T17:52:12.108Z,10.21
2022-12-04T17:54:38.643Z,10.24
2022-12-04T17:57:06.092Z,9.70
2022-12-04T17:59:32.634Z,9.60
2022-12-04T18:01:59.185Z,9.77
2022-12-04T18:04:25.820Z,9.28
2022-12-04T18:06:52.645Z,9.65
2022-12-04T18:09:19.497Z,9.74
2022-12-04T18:11:47.666Z,9.65
2022-12-04T18:14:18.399Z,9.80
2022-12-04T18:16:51.925Z,9.75
2022-12-04T18:19:21.246Z,9.59
2022-12-04T18:21:48.151Z,9.22
2022-12-04T18:24:15.272Z,9.37
2022-12-04T18:26:45.955Z,9.57
2022-12-04T18:29:15.207Z,8.93
2022-12-04T18:31:42.655Z,9.02
2022-12-04T18:34:09.589Z,8.84
2022-12-04T18:36:38.813Z,9.38
2022-12-04T18:39:08.888Z,9.18
2022-12-04T18:41:35.482Z,9.16
2022-12-04T18:44:03.166Z,9.38
2022-12-04T18:46:30.302Z,9.61
2022-12-04T18:49:01.368Z,10.12
2022-12-04T18:51:47.003Z,10.21
2022-12-04T18:54:18.659Z,10.33
2022-12-04T18:56:46.064Z,10.53
2022-12-04T18:59:23.906Z,10.59
2022-12-04T19:01:51.705Z,10.55
2022-12-04T19:04:20.302Z,9.87
2022-12-04T19:06:52.015Z,10.15
2022-12-04T19:09:47.341Z,9.58
2022-12-04T19:12:12.870Z,9.99
2022-12-04T19:14:39.836Z,10.43
2022-12-04T19:17:06.921Z,10.05
2022-12-04T19:19:34.347Z,9.48
2022-12-04T19:22:02.126Z,9.98
2022-12-04T19:24:28.842Z,9.91
2022-12-04T19:26:55.640Z,10.08
2022-12-04T19:32:11.491Z,9.97
2022-12-04T19:34:38.199Z,9.63
2022-12-04T19:37:04.832Z,9.69
2022-12-04T19:39:31.456Z,9.85
2022-12-04T19:41:58.359Z,9.74
2022-12-04T19:44:48.000Z,9.79
2022-12-04T19:47:12.040Z,10.15
2022-12-04T19:49:38.579Z,10.26
2022-12-04T19:52:06.529Z,10.17
2022-12-04T19:54:33.049Z,9.81
2022-12-04T19:56:59.912Z,10.04
2022-12-04T19:59:29.447Z,9.86
2022-12-04T20:01:58.500Z,10.29
2022-12-04T20:04:25.392Z,9.68
2022-12-04T20:06:53.064Z,9.66
2022-12-04T20:09:21.847Z,9.91
2022-12-04T20:11:49.063Z,9.80
2022-12-04T20:14:15.841Z,9.72
2022-12-04T20:16:42.960Z,10.21
2022-12-04T20:19:14.260Z,9.99
2022-12-04T20:21:41.253Z,10.32
2022-12-04T20:24:08.193Z,9.79
2022-12-04T20:26:39.973Z,10.13
2022-12-04T20:29:10.121Z,10.24
2022-12-04T20:31:38.899Z,10.06
2022-12-04T20:34:12.972Z,10.15
2022-12-04T20:36:42.959Z,10.37
2022-12-04T20:39:11.506Z,10.40
2022-12-04T20:41:38.757Z,10.19
2022-12-04T20:44:07.612Z,10.22
2022-12-04T20:46:37.195Z,10.03
2022-12-04T20:49:06.792Z,9.53
2022-12-04T20:51:37.933Z,9.38
2022-12-04T20:54:05.582Z,9.80
2022-12-04T20:56:35.851Z,9.65
2022-12-04T20:59:05.836Z,10.24
2022-12-04T21:01:33.598Z,10.93
2022-12-04T21:04:02.010Z,10.50
2022-12-04T21:06:36.169Z,10.75
2022-12-04T21:09:06.524Z,10.49
2022-12-04T21:11:40.413Z,10.64
2022-12-04T21:14:30.095Z,10.09
2022-12-04T21:16:57.481Z,9.54
2022-12-04T21:19:24.357Z,10.34
2022-12-04T21:21:51.427Z,10.62
2022-12-04T21:24:20.730Z,10.42
2022-12-04T21:26:48.749Z,10.50
2022-12-04T21:29:16.110Z,10.08
2022-12-04T21:31:43.058Z,9.75
2022-12-04T21:34:11.848Z,10.71
2022-12-04T21:36:38.766Z,10.07
2022-12-04T21:39:05.737Z,9.68
2022-12-04T21:41:51.261Z,10.33
2022-12-04T21:44:20.448Z,10.41
2022-12-04T21:46:47.723Z,10.38
2022-12-04T21:49:15.503Z,10.06
2022-12-04T21:51:58.956Z,10.36
2022-12-04T21:54:30.167Z,10.59
2022-12-04T21:56:57.338Z,10.79
2022-12-04T21:59:25.572Z,9.69
2022-12-04T22:01:53.401Z,9.54
2022-12-04T22:04:21.087Z,9.71
2022-12-04T22:06:47.650Z,10.02
2022-12-04T22:09:14.468Z,10.27
2022-12-04T22:11:42.028Z,10.07
2022-12-04T22:14:10.386Z,9.95
2022-12-04T22:16:41.950Z,10.05
2022-12-04T22:19:09.097Z,10.66
2022-12-04T22:21:36.168Z,10.92
2022-12-04T22:24:03.629Z,10.24
2022-12-04T22:26:31.455Z,10.12
2022-12-04T22:28:58.372Z,10.23
2022-12-04T22:31:27.286Z,10.11
2022-12-04T22:33:56.049Z,10.09
2022-12-04T22:36:25.624Z,9.93
2022-12-04T22:41:39.701Z,10.10
2022-12-04T22:44:06.327Z,10.03
2022-12-04T22:46:33.863Z,9.96
2022-12-04T22:49:00.584Z,10.02
2022-12-04T22:51:27.879Z,9.56
2022-12-04T22:53:57.982Z,9.78
2022-12-04T22:56:31.367Z,9.49
2022-12-04T22:58:59.545Z,9.15
2022-12-04T23:01:31.540Z,9.28
2022-12-04T23:03:58.973Z,9.31
2022-12-04T23:06:29.874Z,9.84
2022-12-04T23:09:03.508Z,10.04
2022-12-04T23:11:30.799Z,9.86
2022-12-04T23:14:00.470Z,9.92
2022-12-04T23:16:29.979Z,9.20
2022-12-04T23:18:57.232Z,9.83
2022-12-04T23:21:24.815Z,9.51
2022-12-04T23:23:53.499Z,9.54
2022-12-04T23:26:26.230Z,9.94
2022-12-04T23:28:52.939Z,9.71
2022-12-04T23:31:20.054Z,10.19
2022-12-04T23:33:47.082Z,9.37
2022-12-04T23:36:14.441Z,9.41
2022-12-04T23:38:43.103Z,9.37
2022-12-04T23:41:27.442Z,9.45
2022-12-04T23:43:54.688Z,10.00
2022-12-04T23:46:24.912Z,9.40
2022-12-04T23:48:51.834Z,9.80
2022-12-04T23:51:20.049Z,9.73
2022-12-04T23:53:47.809Z,9.99
2022-12-04T23:56:21.519Z,9.74
2022-12-04T23:58:49.980Z,9.87
